Time;durP1;ratioP1;P1;durP2;ratioP2;P2;SDS_P1;SDS_P2;PMS_P1;PMS_P2;Temp;Humidity;BMP_temperature;BMP_pressure;BME280_temperature;BME280_humidity;BME280_pressure;Samples;Min_cycle;Max_cycle;Signal;HPM_P1;HPM_P2
2021/02/09 00:00:55;;;;;;;;;25.00;22.50;;;;;0.13;89.59;99242.94;3725806;38;21428;-61
2021/02/09 00:03:21;;;;;;;;;25.50;23.00;;;;;0.08;89.22;99246.03;3725621;37;21364;-60
2021/02/09 00:05:48;;;;;;;;;36.75;27.75;;;;;0.05;89.74;99218.91;3725592;37;21323;-60
2021/02/09 00:08:14;;;;;;;;;29.50;20.75;;;;;0.07;89.06;99236.38;3725458;38;21393;-61
2021/02/09 00:10:40;;;;;;;;;30.25;26.00;;;;;0.08;89.41;99226.56;3725789;38;21378;-63
2021/02/09 00:13:06;;;;;;;;;21.25;18.50;;;;;-0.03;89.44;99225.81;3725535;37;21385;-60
2021/02/09 00:15:33;;;;;;;;;25.25;22.00;;;;;0.02;89.36;99222.69;3725480;37;20999;-61
2021/02/09 00:17:59;;;;;;;;;27.25;21.25;;;;;0.07;89.72;99219.59;3725424;37;21361;-63
2021/02/09 00:20:25;;;;;;;;;34.00;26.75;;;;;0.05;89.18;99216.22;3725608;37;21368;-60
2021/02/09 00:22:52;;;;;;;;;30.75;26.00;;;;;0.01;89.21;99205.06;3725498;37;21471;-62
2021/02/09 00:25:21;;;;;;;;;23.75;19.00;;;;;-0.01;89.34;99205.25;3725573;37;21349;-62
2021/02/09 00:27:48;;;;;;;;;30.00;24.75;;;;;-0.03;89.65;99215.19;3725496;37;21331;-60
2021/02/09 00:30:16;;;;;;;;;25.00;22.00;;;;;-0.06;89.27;99220.81;3725594;37;21341;-62
2021/02/09 00:32:43;;;;;;;;;31.25;26.00;;;;;-0.08;89.52;99216.63;3725488;37;21343;-60
2021/02/09 00:35:14;;;;;;;;;23.75;18.50;;;;;-0.08;89.56;99206.81;3725536;37;21328;-61
2021/02/09 00:37:41;;;;;;;;;24.25;18.50;;;;;-0.01;89.66;99209.72;3725490;38;21342;-62
2021/02/09 00:40:09;;;;;;;;;34.00;25.25;;;;;-0.10;89.58;99197.31;3725466;37;21332;-61
2021/02/09 00:42:36;;;;;;;;;29.00;26.25;;;;;0.14;89.46;99208.19;3725281;38;21331;-61
2021/02/09 00:45:05;;;;;;;;;34.25;29.50;;;;;0.17;89.60;99197.25;3725245;37;21303;-61
2021/02/09 00:47:31;;;;;;;;;29.50;26.50;;;;;0.19;89.49;99189.12;3725559;37;21300;-63
2021/02/09 00:49:57;;;;;;;;;35.00;29.00;;;;;0.19;89.54;99194.44;3725666;38;21305;-64
2021/02/09 00:52:23;;;;;;;;;41.75;30.75;;;;;0.22;89.45;99180.84;3725598;37;21291;-62
2021/02/09 00:54:50;;;;;;;;;35.00;27.00;;;;;0.27;89.74;99190.03;3725594;38;21344;-61
2021/02/09 00:57:17;;;;;;;;;41.00;32.00;;;;;0.20;89.30;99206.75;3725671;37;21296;-61
2021/02/09 00:59:44;;;;;;;;;29.50;23.25;;;;;0.14;89.48;99210.84;3724801;37;21326;-62
2021/02/09 01:02:11;;;;;;;;;23.50;19.25;;;;;0.14;89.60;99202.03;3725030;38;21296;-61
2021/02/09 01:04:37;;;;;;;;;29.25;21.75;;;;;0.15;89.50;99209.03;3725066;37;21300;-61
2021/02/09 01:07:03;;;;;;;;;26.00;20.25;;;;;0.16;89.52;99219.53;3725411;38;21286;-62
2021/02/09 01:09:30;;;;;;;;;32.75;24.50;;;;;0.17;89.29;99202.56;3725503;37;21302;-63
2021/02/09 01:11:56;;;;;;;;;28.00;20.25;;;;;0.19;89.49;99205.09;3725679;37;21318;-62
2021/02/09 01:14:22;;;;;;;;;33.00;27.25;;;;;0.20;89.74;99190.81;3725237;37;21260;-61
2021/02/09 01:16:48;;;;;;;;;37.00;32.25;;;;;0.25;89.32;99193.84;3725473;38;21256;-62
2021/02/09 01:19:14;;;;;;;;;40.25;31.00;;;;;0.20;89.58;99188.97;3725518;37;21288;-61
2021/02/09 01:21:41;;;;;;;;;26.00;22.50;;;;;0.31;89.48;99187.91;3725610;38;21313;-61
2021/02/09 01:24:07;;;;;;;;;33.25;28.25;;;;;0.21;89.40;99184.50;3725439;38;21242;-61
2021/02/09 01:26:34;;;;;;;;;30.75;26.50;;;;;0.19;89.22;99213.06;3725506;37;21242;-63
2021/02/09 01:29:00;;;;;;;;;27.25;22.00;;;;;0.23;89.58;99207.28;3725603;37;21242;-63
2021/02/09 01:31:26;;;;;;;;;29.50;23.50;;;;;0.28;89.60;99214.81;3725613;38;21258;-61
2021/02/09 01:33:52;;;;;;;;;35.75;27.50;;;;;0.29;89.53;99224.47;3725570;37;21243;-62
2021/02/09 01:36:18;;;;;;;;;33.25;27.25;;;;;0.22;89.32;99232.22;3725517;38;21261;-64
2021/02/09 01:38:44;;;;;;;;;29.50;23.00;;;;;0.16;89.24;99239.97;3725644;38;21259;-61
2021/02/09 01:41:11;;;;;;;;;29.50;24.50;;;;;0.10;89.19;99249.38;3725469;37;21226;-62
2021/02/09 01:43:37;;;;;;;;;37.75;24.50;;;;;0.06;89.36;99233.88;3725352;38;21335;-63
2021/02/09 01:46:03;;;;;;;;;27.25;20.75;;;;;0.16;89.66;99246.13;3725248;37;21327;-62
2021/02/09 01:48:30;;;;;;;;;27.50;25.75;;;;;0.18;89.28;99243.31;3725587;38;21239;-63
2021/02/09 01:50:56;;;;;;;;;36.50;30.25;;;;;0.22;89.53;99250.00;3725600;38;21239;-64
2021/02/09 01:53:23;;;;;;;;;38.25;33.50;;;;;0.16;89.89;99251.44;3725626;38;21030;-62
2021/02/09 01:55:50;;;;;;;;;39.75;32.00;;;;;-0.14;89.52;99223.37;3725589;37;21238;-63
2021/02/09 01:58:20;;;;;;;;;43.50;31.75;;;;;-0.06;89.65;99244.75;3725660;37;21315;-62
2021/02/09 02:00:47;;;;;;;;;47.25;34.75;;;;;-0.08;89.84;99261.81;3725593;38;21255;-64
2021/02/09 02:03:13;;;;;;;;;32.75;26.75;;;;;-0.05;89.82;99259.72;3725536;37;21309;-62
2021/02/09 02:05:39;;;;;;;;;33.75;26.00;;;;;-0.16;90.01;99249.25;3725488;37;21210;-62
2021/02/09 02:08:05;;;;;;;;;40.25;30.00;;;;;-0.04;89.87;99279.16;3725573;38;21227;-62
2021/02/09 02:10:37;;;;;;;;;34.50;28.75;;;;;-0.04;89.93;99282.66;3725455;37;21229;-61
2021/02/09 02:13:39;;;;;;;;;35.25;28.00;;;;;0.00;89.99;99283.19;3725620;37;21221;-62
2021/02/09 02:16:26;;;;;;;;;32.75;29.75;;;;;-0.01;90.26;99277.03;3725563;37;21234;-63
2021/02/09 02:19:18;;;;;;;;;30.00;27.75;;;;;0.05;90.34;99285.37;3725541;38;21189;-64
2021/02/09 02:22:27;;;;;;;;;34.00;26.75;;;;;0.10;89.93;99289.28;3725600;38;21293;-64
2021/02/09 02:25:31;;;;;;;;;38.25;31.00;;;;;-0.03;90.38;99304.78;3725960;37;21245;-62
2021/02/09 02:28:18;;;;;;;;;27.00;25.75;;;;;-0.06;90.21;99310.38;3725463;37;21216;-62
2021/02/09 02:31:20;;;;;;;;;39.00;27.25;;;;;0.02;90.44;99302.47;3725616;38;21121;-64
2021/02/09 02:33:53;;;;;;;;;37.25;27.50;;;;;0.03;90.29;99306.81;3725599;37;21269;-62
2021/02/09 02:36:28;;;;;;;;;28.50;26.50;;;;;0.21;90.41;99328.16;3725660;37;21231;-61
2021/02/09 02:39:22;;;;;;;;;33.75;29.50;;;;;0.26;89.90;99337.37;3725669;37;21168;-62
2021/02/09 02:41:50;;;;;;;;;35.25;28.00;;;;;0.31;89.87;99329.78;3725604;38;21177;-63
2021/02/09 02:44:21;;;;;;;;;42.75;27.25;;;;;0.37;90.10;99338.16;3725598;37;21140;-63
2021/02/09 02:46:48;;;;;;;;;36.75;28.50;;;;;0.40;90.16;99336.03;3725546;37;21186;-61
2021/02/09 02:49:16;;;;;;;;;35.00;27.25;;;;;0.48;90.17;99332.66;3725529;38;21178;-62
2021/02/09 02:51:42;;;;;;;;;33.50;26.25;;;;;0.46;89.96;99337.28;3725454;38;21127;-63
2021/02/09 02:54:12;;;;;;;;;42.50;30.00;;;;;0.36;89.85;99344.47;3725403;38;21180;-62
2021/02/09 02:56:40;;;;;;;;;37.50;30.25;;;;;0.36;89.93;99361.28;3725506;37;21182;-62
2021/02/09 02:59:08;;;;;;;;;40.50;31.00;;;;;0.38;89.82;99369.94;3725489;38;21194;-62
2021/02/09 03:01:35;;;;;;;;;36.00;27.75;;;;;0.43;90.20;99357.03;3725692;37;21171;-63
2021/02/09 03:04:02;;;;;;;;;36.00;29.25;;;;;0.47;90.01;99365.56;3725416;38;21185;-63
2021/02/09 03:06:31;;;;;;;;;36.75;23.75;;;;;0.31;89.75;99356.41;3725606;37;21148;-62
2021/02/09 03:08:58;;;;;;;;;35.25;27.25;;;;;0.30;89.76;99360.03;3725797;37;21178;-61
2021/02/09 03:11:35;;;;;;;;;31.00;26.75;;;;;0.30;90.11;99360.03;3726200;37;21109;-61
2021/02/09 03:14:17;;;;;;;;;44.75;27.00;;;;;0.31;90.05;99350.25;3725627;37;21098;-62
2021/02/09 03:16:46;;;;;;;;;32.25;24.75;;;;;0.32;89.91;99334.12;3725615;37;21143;-63
2021/02/09 03:19:23;;;;;;;;;36.75;28.50;;;;;0.44;90.18;99353.41;3725596;37;21110;-62
2021/02/09 03:21:52;;;;;;;;;42.50;29.75;;;;;0.32;90.00;99339.44;3725761;38;21096;-62
2021/02/09 03:24:19;;;;;;;;;39.00;32.00;;;;;0.48;89.86;99378.72;3725188;38;21148;-62
2021/02/09 03:26:46;;;;;;;;;35.50;29.50;;;;;0.44;90.00;99381.84;3725525;38;21108;-61
2021/02/09 03:29:13;;;;;;;;;39.00;31.00;;;;;0.39;89.78;99384.09;3725555;37;21138;-62
2021/02/09 03:31:43;;;;;;;;;46.00;37.25;;;;;0.49;89.96;99407.03;3725550;38;20932;-63
2021/02/09 03:34:12;;;;;;;;;38.50;33.00;;;;;0.44;89.44;99403.12;3725597;38;21200;-62
2021/02/09 03:36:39;;;;;;;;;36.00;28.50;;;;;0.44;89.82;99400.47;3725590;37;21181;-62
2021/02/09 03:39:07;;;;;;;;;44.25;36.75;;;;;0.49;89.99;99409.69;3725565;37;21194;-62
2021/02/09 03:41:33;;;;;;;;;33.25;28.25;;;;;0.45;89.87;99410.12;3725581;37;20778;-61
2021/02/09 03:44:00;;;;;;;;;38.75;29.50;;;;;0.44;89.65;99414.63;3725468;38;21076;-63
2021/02/09 03:46:27;;;;;;;;;39.00;31.75;;;;;0.51;89.69;99428.19;3725770;37;21125;-62
2021/02/09 03:48:53;;;;;;;;;41.75;32.00;;;;;0.55;90.02;99416.22;3725661;38;21100;-63
2021/02/09 03:51:19;;;;;;;;;31.75;28.25;;;;;0.58;90.06;99418.59;3725519;38;21168;-63
2021/02/09 03:53:46;;;;;;;;;45.00;36.75;;;;;0.61;89.93;99436.91;3725583;38;21062;-63
2021/02/09 03:56:12;;;;;;;;;33.50;31.50;;;;;0.53;90.11;99428.84;3725682;37;21183;-61
2021/02/09 03:58:38;;;;;;;;;48.00;40.75;;;;;0.65;90.10;99455.13;3725171;38;21056;-62
2021/02/09 04:01:05;;;;;;;;;47.25;37.75;;;;;0.72;90.10;99462.53;3725592;37;21156;-63
2021/02/09 04:03:31;;;;;;;;;34.25;26.75;;;;;0.62;89.84;99460.75;3725533;37;21166;-63
2021/02/09 04:05:57;;;;;;;;;27.50;23.25;;;;;0.63;89.76;99450.94;3725534;38;21097;-63
2021/02/09 04:08:23;;;;;;;;;36.75;25.00;;;;;0.69;89.74;99476.13;3725575;37;21035;-62
2021/02/09 04:10:51;;;;;;;;;19.25;16.25;;;;;0.49;89.51;99464.75;3725780;38;21094;-63
2021/02/09 04:13:17;;;;;;;;;22.50;18.75;;;;;0.43;89.56;99460.84;3725623;38;21027;-64
2021/02/09 04:15:44;;;;;;;;;22.00;18.50;;;;;0.48;90.01;99452.44;3725712;38;21048;-62
2021/02/09 04:18:10;;;;;;;;;21.25;17.75;;;;;0.46;89.76;99457.06;3725713;38;21044;-61
2021/02/09 04:20:36;;;;;;;;;24.25;23.50;;;;;0.55;89.86;99470.28;3725854;37;21023;-62
2021/02/09 04:23:03;;;;;;;;;23.50;22.00;;;;;0.53;90.00;99471.44;3725351;37;21054;-62
2021/02/09 04:25:29;;;;;;;;;21.75;19.00;;;;;0.50;89.86;99469.09;3725455;38;21006;-61
2021/02/09 04:27:56;;;;;;;;;22.75;19.50;;;;;0.50;89.76;99466.44;3725458;37;20666;-63
2021/02/09 04:30:22;;;;;;;;;29.50;22.25;;;;;0.42;89.67;99480.47;3725553;38;20966;-62
2021/02/09 04:32:48;;;;;;;;;27.00;23.25;;;;;-0.01;89.46;99430.47;3725559;38;21019;-61
2021/02/09 04:35:16;;;;;;;;;21.50;20.00;;;;;0.12;89.76;99457.56;3725389;38;20995;-62
2021/02/09 04:37:42;;;;;;;;;25.25;18.00;;;;;0.23;89.92;99486.66;3725478;37;20998;-62
2021/02/09 04:40:10;;;;;;;;;27.00;23.00;;;;;0.17;90.01;99505.87;3725791;37;20978;-61
2021/02/09 04:42:39;;;;;;;;;40.25;33.25;;;;;0.19;89.92;99511.88;3725549;37;21023;-62
2021/02/09 04:45:06;;;;;;;;;33.00;32.00;;;;;0.25;89.95;99513.13;3725499;37;21013;-62
2021/02/09 04:47:33;;;;;;;;;33.00;23.75;;;;;0.24;90.22;99533.59;3725457;37;20974;-62
2021/02/09 04:50:01;;;;;;;;;36.25;30.25;;;;;0.23;89.79;99534.56;3725615;37;21060;-61
2021/02/09 04:52:28;;;;;;;;;29.75;20.50;;;;;0.16;89.91;99528.13;3725605;37;21012;-63
2021/02/09 04:54:54;;;;;;;;;33.75;26.25;;;;;0.02;90.08;99538.38;3725529;37;21015;-62
2021/02/09 04:57:20;;;;;;;;;19.75;17.25;;;;;-0.08;90.21;99555.19;3725157;38;20995;-61
2021/02/09 04:59:47;;;;;;;;;37.50;27.00;;;;;-0.20;90.05;99536.87;3725540;37;21004;-62
2021/02/09 05:02:14;;;;;;;;;40.25;26.75;;;;;-0.15;90.36;99545.25;3725583;38;21043;-62
2021/02/09 05:04:43;;;;;;;;;33.25;28.75;;;;;-0.05;90.41;99573.53;3725479;37;21027;-63
2021/02/09 05:07:29;;;;;;;;;37.25;26.00;;;;;-0.20;90.41;99558.13;3725466;38;20983;-62
2021/02/09 05:10:14;;;;;;;;;24.50;22.50;;;;;0.00;90.76;99591.75;3725506;38;20947;-63
2021/02/09 05:13:02;;;;;;;;;26.75;21.50;;;;;-0.07;90.25;99607.41;3725799;38;20941;-61
2021/02/09 05:15:37;;;;;;;;;27.75;21.25;;;;;0.05;90.62;99617.88;3725761;38;21005;-63
2021/02/09 05:18:07;;;;;;;;;26.75;19.00;;;;;0.07;90.78;99626.56;3725844;37;20949;-63
2021/02/09 05:20:38;;;;;;;;;38.00;28.00;;;;;0.06;90.44;99624.88;3729531;37;20934;-62
2021/02/09 05:23:13;;;;;;;;;100.75;75.50;;;;;-0.05;90.19;99632.06;3725798;38;21002;-64
2021/02/09 05:25:44;;;;;;;;;55.25;38.00;;;;;-0.19;90.55;99618.31;3725818;37;17846;-62
2021/02/09 05:28:13;;;;;;;;;27.00;17.00;;;;;-0.11;90.73;99659.19;3725650;38;21059;-64
2021/02/09 05:30:45;;;;;;;;;25.50;20.00;;;;;-0.27;90.80;99650.91;3725715;38;20918;-65
2021/02/09 05:33:14;;;;;;;;;22.50;18.25;;;;;-0.24;90.77;99658.59;3725794;38;20947;-62
2021/02/09 05:35:45;;;;;;;;;27.75;22.75;;;;;-0.28;90.83;99659.84;3726043;37;20918;-62
2021/02/09 05:38:14;;;;;;;;;24.75;19.75;;;;;-0.08;90.94;99690.00;3726017;38;20978;-63
2021/02/09 05:40:41;;;;;;;;;24.50;19.50;;;;;-0.06;90.50;99690.69;3726044;38;20904;-63
2021/02/09 05:43:07;;;;;;;;;23.25;18.00;;;;;-0.07;90.73;99703.16;3725919;37;21034;-63
2021/02/09 05:45:35;;;;;;;;;18.75;16.50;;;;;-0.19;90.92;99719.34;3726832;38;20890;-62
2021/02/09 05:48:02;;;;;;;;;21.25;16.25;;;;;-0.25;90.83;99718.06;3726039;37;20907;-62
2021/02/09 05:50:28;;;;;;;;;21.50;17.50;;;;;-0.48;91.37;99736.03;3725689;37;20902;-62
2021/02/09 05:52:56;;;;;;;;;26.75;20.25;;;;;-0.43;90.96;99762.22;3726136;38;20892;-62
2021/02/09 05:55:22;;;;;;;;;23.25;20.75;;;;;-0.37;91.37;99783.78;3725744;38;20899;-63
2021/02/09 05:58:04;;;;;;;;;27.75;22.25;;;;;-0.37;90.92;99773.16;3725611;38;20902;-63
2021/02/09 06:00:31;;;;;;;;;33.75;24.25;;;;;-0.40;90.71;99781.41;3732496;37;20582;-62
2021/02/09 06:03:36;;;;;;;;;17.75;13.50;;;;;-0.44;91.05;99798.59;3725841;37;20867;-62
2021/02/09 06:06:32;;;;;;;;;23.25;21.00;;;;;-0.61;91.10;99779.78;3725904;37;20834;-64
2021/02/09 06:09:00;;;;;;;;;22.50;14.00;;;;;-0.64;91.16;99803.94;3725940;37;20900;-63
2021/02/09 06:12:01;;;;;;;;;23.50;20.00;;;;;-0.68;91.11;99817.50;3725962;38;20890;-64
2021/02/09 06:14:51;;;;;;;;;18.00;14.00;;;;;-0.62;91.39;99836.56;3725813;38;20832;-63
2021/02/09 06:17:20;;;;;;;;;27.75;18.00;;;;;-0.69;91.75;99818.47;3725839;37;20835;-64
2021/02/09 06:19:59;;;;;;;;;16.25;13.00;;;;;-0.77;91.42;99815.63;3725757;38;20921;-64
2021/02/09 06:22:25;;;;;;;;;16.00;13.00;;;;;-0.75;91.62;99842.91;3725747;38;20811;-63
2021/02/09 06:25:09;;;;;;;;;16.75;12.75;;;;;-0.63;91.11;99848.16;3725936;37;20850;-65
2021/02/09 06:28:00;;;;;;;;;18.25;16.00;;;;;-0.59;91.27;99855.75;3725829;37;20847;-65
2021/02/09 06:30:43;;;;;;;;;23.25;19.75;;;;;-0.58;91.26;99851.25;3725899;38;20870;-65
2021/02/09 06:33:11;;;;;;;;;20.50;19.00;;;;;-0.59;91.35;99857.56;3726174;38;20842;-64
2021/02/09 06:36:11;;;;;;;;;25.25;21.25;;;;;-0.58;91.09;99867.22;3724980;37;20831;-64
2021/02/09 06:39:00;;;;;;;;;17.25;14.50;;;;;-0.56;91.13;99875.91;3725045;38;20864;-65
2021/02/09 06:41:50;;;;;;;;;25.75;20.25;;;;;-0.51;91.09;99868.34;3725022;38;20798;-66
2021/02/09 06:44:29;;;;;;;;;17.75;16.50;;;;;-0.38;91.32;99888.44;3725010;37;20832;-64
2021/02/09 06:47:03;;;;;;;;;20.50;13.75;;;;;-0.41;91.07;99902.00;3725520;37;20833;-66
2021/02/09 06:49:58;;;;;;;;;23.25;20.25;;;;;-0.43;91.17;99900.44;3725540;38;20770;-66
2021/02/09 06:52:56;;;;;;;;;23.00;17.75;;;;;-0.47;90.87;99918.47;3725101;37;20818;-66
2021/02/09 06:55:49;;;;;;;;;22.75;19.50;;;;;-0.60;90.88;99896.56;3725762;37;20802;-67
2021/02/09 06:58:16;;;;;;;;;17.75;16.00;;;;;-0.46;90.94;99925.47;3725233;37;20805;-66
2021/02/09 07:00:45;;;;;;;;;25.50;20.75;;;;;-0.44;90.84;99928.84;3725571;37;20821;-67
2021/02/09 07:03:11;;;;;;;;;17.75;13.75;;;;;-0.41;90.83;99936.56;3725841;38;20822;-64
2021/02/09 07:05:51;;;;;;;;;24.00;17.25;;;;;-0.37;90.92;99945.97;3725582;37;20777;-63
2021/02/09 07:08:20;;;;;;;;;12.25;9.50;;;;;-0.42;91.02;99918.91;3725866;38;20820;-61
2021/02/09 07:10:47;;;;;;;;;26.00;18.00;;;;;-0.25;91.04;99945.91;3725856;38;20704;-62
2021/02/09 07:13:21;;;;;;;;;26.00;21.25;;;;;-0.22;90.72;99966.91;3725615;37;20846;-61
2021/02/09 07:15:57;;;;;;;;;18.25;14.00;;;;;-0.18;90.68;99974.50;3726596;37;21791;-64
2021/02/09 07:18:26;;;;;;;;;28.25;24.25;;;;;-0.37;90.76;99943.31;3726201;37;20762;-63
2021/02/09 07:21:08;;;;;;;;;29.75;22.75;;;;;-0.16;90.96;99953.09;3725915;38;21791;-64
2021/02/09 07:23:36;;;;;;;;;10.75;10.75;;;;;0.00;90.70;99990.72;3725880;37;20808;-64
2021/02/09 07:26:08;;;;;;;;;46.75;34.50;;;;;-0.08;90.73;100003.84;3725891;38;21787;-64
2021/02/09 07:28:37;;;;;;;;;28.50;22.25;;;;;-0.16;90.51;100008.94;3725393;38;21885;-64
2021/02/09 07:31:17;;;;;;;;;46.25;34.25;;;;;-0.16;90.59;100014.28;3725328;37;21854;-62
2021/02/09 07:33:52;;;;;;;;;23.50;19.75;;;;;-0.26;90.53;99984.09;3725745;38;21879;-62
2021/02/09 07:36:21;;;;;;;;;31.50;28.25;;;;;-0.22;90.05;100020.09;3726145;38;21758;-63
2021/02/09 07:38:50;;;;;;;;;26.50;24.00;;;;;-0.26;90.24;100021.34;3725584;37;21879;-62
2021/02/09 07:41:29;;;;;;;;;30.50;26.50;;;;;-0.20;90.57;100034.13;3725880;38;21736;-65
2021/02/09 07:44:00;;;;;;;;;39.00;30.00;;;;;-0.33;90.27;100036.94;3725983;38;21758;-63
2021/02/09 07:46:26;;;;;;;;;36.50;26.50;;;;;-0.46;90.20;100041.59;3725918;37;21885;-64
2021/02/09 07:48:53;;;;;;;;;32.50;25.50;;;;;-0.41;90.27;100061.50;3725881;38;21795;-62
2021/02/09 07:51:25;;;;;;;;;25.50;21.00;;;;;-0.44;90.30;100052.94;3725802;38;21746;-63
2021/02/09 07:53:53;;;;;;;;;19.50;15.75;;;;;-0.41;89.98;100060.66;3725666;37;21738;-63
2021/02/09 07:56:23;;;;;;;;;23.25;23.25;;;;;-0.41;89.70;100061.50;3725651;37;21726;-62
2021/02/09 07:59:13;;;;;;;;;16.50;16.00;;;;;-0.53;89.64;100077.63;3726055;37;21741;-63
2021/02/09 08:01:41;;;;;;;;;30.25;24.25;;;;;-0.79;89.44;100042.53;3726003;38;21726;-63
2021/02/09 08:04:08;;;;;;;;;19.25;18.00;;;;;-0.46;89.60;100084.97;3725795;38;21753;-65
2021/02/09 08:06:39;;;;;;;;;25.75;23.25;;;;;-0.48;89.29;100081.56;3726257;37;21718;-63
2021/02/09 08:09:07;;;;;;;;;22.25;20.75;;;;;-0.40;89.54;100095.09;3726005;38;21720;-64
2021/02/09 08:11:33;;;;;;;;;26.50;24.50;;;;;-0.51;88.90;100092.47;3725729;37;21735;-64
2021/02/09 08:14:00;;;;;;;;;21.25;15.00;;;;;-0.55;89.18;100088.37;3727303;37;21721;-62
2021/02/09 08:16:27;;;;;;;;;29.50;26.00;;;;;-0.43;89.50;100095.34;3726382;38;21725;-64
2021/02/09 08:18:53;;;;;;;;;41.50;35.50;;;;;-0.27;89.36;100102.06;3727197;37;21834;-66
2021/02/09 08:21:19;;;;;;;;;35.00;27.25;;;;;-0.31;88.79;100106.78;3726990;37;21801;-64
2021/02/09 08:23:46;;;;;;;;;60.00;44.25;;;;;-0.26;89.04;100115.25;3725609;37;21719;-64
2021/02/09 08:26:12;;;;;;;;;69.50;50.75;;;;;-0.14;89.26;100111.56;3725750;38;21787;-63
2021/02/09 08:28:38;;;;;;;;;36.25;29.00;;;;;-0.03;89.06;100124.00;3725729;37;21817;-64
2021/02/09 08:31:05;;;;;;;;;27.75;20.75;;;;;-0.06;88.60;100124.25;3725939;38;21802;-63
2021/02/09 08:33:31;;;;;;;;;28.75;21.50;;;;;-0.22;88.12;100137.09;3725727;38;21724;-63
2021/02/09 08:35:59;;;;;;;;;35.25;34.25;;;;;-0.23;88.49;100130.94;3726007;38;21724;-63
2021/02/09 08:38:26;;;;;;;;;29.75;26.75;;;;;-0.15;88.22;100148.94;3725876;37;21578;-63
2021/02/09 08:40:53;;;;;;;;;36.50;27.25;;;;;-0.19;87.99;100148.34;3725855;38;21676;-64
2021/02/09 08:43:20;;;;;;;;;42.00;29.00;;;;;-0.45;88.16;100089.31;3723312;38;21784;-64
2021/02/09 08:45:46;;;;;;;;;37.25;29.25;;;;;0.04;87.96;100156.22;3722087;37;21720;-64
2021/02/09 08:48:12;;;;;;;;;42.75;35.50;;;;;0.19;87.74;100154.97;3725622;38;21783;-64
2021/02/09 08:50:39;;;;;;;;;32.75;28.50;;;;;0.14;87.62;100139.38;3725460;38;21788;-63
2021/02/09 08:53:05;;;;;;;;;35.25;27.25;;;;;0.29;87.85;100151.41;3725793;37;21782;-62
2021/02/09 08:55:31;;;;;;;;;38.50;31.50;;;;;0.25;87.07;100154.47;3725785;38;21776;-62
2021/02/09 08:57:57;;;;;;;;;36.00;32.50;;;;;0.45;87.44;100155.47;3725933;38;21775;-63
2021/02/09 09:00:24;;;;;;;;;36.50;30.25;;;;;0.50;86.93;100145.28;3725648;38;21763;-63
2021/02/09 09:02:52;;;;;;;;;40.50;31.75;;;;;0.16;86.00;100155.22;3725875;38;21765;-64
2021/02/09 09:05:19;;;;;;;;;46.00;34.75;;;;;0.10;86.52;100161.88;3725766;37;21752;-63
2021/02/09 09:07:46;;;;;;;;;32.00;26.75;;;;;0.13;86.17;100166.97;3725833;38;21743;-64
2021/02/09 09:10:14;;;;;;;;;35.50;30.50;;;;;0.16;86.32;100166.72;3725866;38;21629;-63
2021/02/09 09:12:43;;;;;;;;;28.00;25.00;;;;;0.27;86.15;100179.97;3725599;37;21632;-63
2021/02/09 09:15:14;;;;;;;;;29.00;25.75;;;;;0.38;85.80;100188.88;3726088;37;21645;-62
2021/02/09 09:17:41;;;;;;;;;18.75;16.50;;;;;0.49;85.98;100184.38;3725887;37;21645;-62
2021/02/09 09:20:13;;;;;;;;;35.00;30.00;;;;;0.62;85.17;100189.47;3725745;38;21634;-63
2021/02/09 09:22:40;;;;;;;;;35.00;28.25;;;;;0.73;85.31;100196.56;3725668;38;21671;-61
2021/02/09 09:25:08;;;;;;;;;45.00;33.00;;;;;0.77;84.82;100193.50;3725709;37;21631;-63
2021/02/09 09:27:35;;;;;;;;;21.25;21.25;;;;;0.63;83.71;100193.81;3726111;37;21725;-63
2021/02/09 09:30:02;;;;;;;;;36.25;30.75;;;;;0.28;84.29;100179.00;3726745;38;21724;-63
2021/02/09 09:32:28;;;;;;;;;36.25;30.50;;;;;0.44;84.35;100188.38;3725826;37;21726;-63
2021/02/09 09:34:54;;;;;;;;;41.00;32.75;;;;;0.26;83.93;100188.94;3725651;37;21696;-63
2021/02/09 09:37:22;;;;;;;;;35.00;25.00;;;;;0.41;84.08;100202.78;3725714;38;21714;-62
2021/02/09 09:39:49;;;;;;;;;50.00;41.00;;;;;0.40;84.31;100192.28;3725763;37;21699;-64
2021/02/09 09:42:15;;;;;;;;;55.50;40.50;;;;;0.36;83.72;100207.66;3725866;38;21709;-62
2021/02/09 09:44:41;;;;;;;;;46.75;40.00;;;;;0.42;83.82;100216.94;3726015;37;21691;-63
2021/02/09 09:47:08;;;;;;;;;46.75;39.75;;;;;0.17;83.34;100189.69;3725843;38;21703;-63
2021/02/09 09:49:35;;;;;;;;;44.25;35.25;;;;;0.22;83.47;100207.94;3725880;37;22019;-63
2021/02/09 09:52:01;;;;;;;;;47.00;37.75;;;;;0.17;83.40;100204.81;3725662;37;21725;-63
2021/02/09 09:54:28;;;;;;;;;47.00;38.50;;;;;0.21;83.41;100222.22;3725678;38;21783;-63
2021/02/09 09:56:54;;;;;;;;;55.75;42.25;;;;;0.27;83.95;100192.44;3725802;38;21677;-62
2021/02/09 09:59:21;;;;;;;;;30.25;24.00;;;;;0.53;83.96;100206.22;3725727;37;21681;-64
2021/02/09 10:01:47;;;;;;;;;53.00;39.50;;;;;0.47;83.47;100201.44;3725824;37;21678;-65
2021/02/09 10:04:13;;;;;;;;;51.25;37.75;;;;;0.46;83.64;100191.75;3725729;37;21690;-65
2021/02/09 10:06:39;;;;;;;;;45.00;36.50;;;;;0.61;82.98;100209.09;3725986;38;21672;-63
2021/02/09 10:09:06;;;;;;;;;52.75;38.50;;;;;0.57;82.85;100205.84;3726055;37;21693;-63
2021/02/09 10:11:32;;;;;;;;;50.00;39.00;;;;;0.37;82.58;100185.38;3725592;38;21667;-64
2021/02/09 10:13:58;;;;;;;;;43.25;35.25;;;;;0.42;82.79;100211.62;3725554;38;21656;-64
2021/02/09 10:16:24;;;;;;;;;47.00;35.75;;;;;0.63;82.93;100210.66;3725829;38;21673;-64
2021/02/09 10:18:51;;;;;;;;;41.00;32.50;;;;;0.66;82.96;100202.41;3726082;37;21676;-64
2021/02/09 10:21:17;;;;;;;;;37.00;33.50;;;;;0.76;82.90;100194.50;3726311;37;21666;-63
2021/02/09 10:23:44;;;;;;;;;33.25;30.00;;;;;0.70;82.19;100192.34;3726780;37;21663;-64
2021/02/09 10:26:10;;;;;;;;;42.50;35.50;;;;;0.69;82.04;100189.81;3726008;37;21639;-64
2021/02/09 10:28:36;;;;;;;;;39.75;33.25;;;;;0.56;82.13;100187.31;3725940;38;21627;-64
2021/02/09 10:31:03;;;;;;;;;26.50;22.50;;;;;0.62;82.36;100189.47;3726177;37;21639;-63
2021/02/09 10:33:29;;;;;;;;;48.25;37.25;;;;;0.66;81.97;100209.56;3725345;38;21649;-64
2021/02/09 10:35:56;;;;;;;;;40.00;34.75;;;;;0.59;82.24;100208.38;3727245;37;21644;-63
2021/02/09 10:38:22;;;;;;;;;49.25;37.75;;;;;0.45;82.24;100201.56;3726086;38;21641;-63
2021/02/09 10:40:49;;;;;;;;;45.50;36.75;;;;;0.44;82.13;100213.19;3725680;38;21714;-61
2021/02/09 10:43:15;;;;;;;;;48.25;40.75;;;;;0.51;82.56;100224.16;3725845;38;21619;-63
2021/02/09 10:45:42;;;;;;;;;50.75;40.75;;;;;0.58;82.70;100207.53;3725417;38;21661;-62
2021/02/09 10:48:09;;;;;;;;;45.75;36.75;;;;;0.70;82.23;100210.97;3726487;37;21621;-62
2021/02/09 10:50:35;;;;;;;;;47.75;40.25;;;;;0.67;81.92;100213.91;3726098;38;21616;-63
2021/02/09 10:53:01;;;;;;;;;53.75;41.25;;;;;0.64;82.35;100227.47;3726181;37;21625;-62
2021/02/09 10:55:27;;;;;;;;;46.25;38.75;;;;;0.58;82.62;100214.66;3726179;38;21636;-62
2021/02/09 10:57:54;;;;;;;;;51.50;41.25;;;;;0.57;82.54;100218.31;3725818;37;21616;-62
2021/02/09 11:00:22;;;;;;;;;44.50;37.25;;;;;0.60;82.30;100218.06;3725701;37;21616;-62
2021/02/09 11:02:50;;;;;;;;;54.75;39.50;;;;;0.67;82.11;100224.56;3725554;38;21594;-62
2021/02/09 11:05:17;;;;;;;;;52.75;42.75;;;;;0.81;82.76;100228.72;3725873;37;21604;-63
2021/02/09 11:07:44;;;;;;;;;49.75;41.00;;;;;0.76;81.96;100218.47;3725564;37;21586;-61
2021/02/09 11:10:12;;;;;;;;;52.50;41.00;;;;;0.84;81.50;100216.00;3725943;37;21598;-62
2021/02/09 11:12:38;;;;;;;;;50.00;40.50;;;;;1.24;81.66;100228.56;3725920;38;21652;-63
2021/02/09 11:15:08;;;;;;;;;46.00;38.00;;;;;1.36;81.44;100227.50;3725883;37;21573;-63
2021/02/09 11:17:34;;;;;;;;;50.75;39.75;;;;;1.48;80.39;100229.12;3725894;37;21601;-62
2021/02/09 11:20:00;;;;;;;;;55.50;41.50;;;;;1.55;80.37;100243.59;3725946;38;21581;-64
2021/02/09 11:22:26;;;;;;;;;47.00;41.50;;;;;1.57;80.13;100232.78;3725798;37;21580;-63
2021/02/09 11:24:53;;;;;;;;;54.75;41.00;;;;;1.56;79.62;100229.25;3725924;37;21574;-64
2021/02/09 11:27:19;;;;;;;;;49.25;40.25;;;;;1.40;78.99;100206.75;3725846;37;21581;-63
2021/02/09 11:29:45;;;;;;;;;41.25;35.50;;;;;1.60;79.34;100221.84;3725802;37;21559;-63
2021/02/09 11:32:12;;;;;;;;;46.25;38.50;;;;;1.62;79.03;100233.22;3725770;38;21577;-64